Time;durP1;ratioP1;P1;durP2;ratioP2;P2;SDS_P1;SDS_P2;PMS_P1;PMS_P2;Temp;Humidity;BMP_temperature;BMP_pressure;BME280_temperature;BME280_humidity;BME280_pressure;Samples;Min_cycle;Max_cycle;Signal;HPM_P1;HPM_P2
2022/05/31 00:00:41;;;;;;;1.70;1.60;;;15.60;99.90;;;;;;4972818;28;20053;-76
2022/05/31 00:03:10;;;;;;;3.88;2.20;;;15.50;99.90;;;;;;4954215;28;20479;-76
2022/05/31 00:05:37;;;;;;;2.03;1.83;;;15.50;99.90;;;;;;4971754;28;20049;-76
2022/05/31 00:08:06;;;;;;;1.80;1.70;;;15.60;99.90;;;;;;4950824;29;20055;-76
2022/05/31 00:10:33;;;;;;;5.65;1.70;;;15.60;99.90;;;;;;4953139;28;20639;-76
2022/05/31 00:13:01;;;;;;;1.75;1.65;;;15.60;99.90;;;;;;4939028;28;20042;-76
2022/05/31 00:15:29;;;;;;;3.33;1.83;;;15.60;99.90;;;;;;4971204;28;20066;-76
2022/05/31 00:17:56;;;;;;;3.67;1.77;;;15.60;99.90;;;;;;4968262;28;20046;-76
2022/05/31 00:20:26;;;;;;;5.40;1.73;;;15.60;99.90;;;;;;4972734;28;20054;-76
2022/05/31 00:22:54;;;;;;;7.32;2.58;;;15.70;99.90;;;;;;4971334;28;20050;-76
2022/05/31 00:25:21;;;;;;;5.45;1.65;;;15.70;99.90;;;;;;4972572;28;20043;-76
2022/05/31 00:27:50;;;;;;;8.60;2.25;;;15.70;99.90;;;;;;4956210;28;20690;-77
2022/05/31 00:30:18;;;;;;;3.25;1.88;;;15.70;99.90;;;;;;4973981;28;20047;-76
2022/05/31 00:32:51;;;;;;;5.68;2.40;;;15.70;99.90;;;;;;4969160;28;20035;-76
2022/05/31 00:35:22;;;;;;;3.50;1.92;;;15.80;99.90;;;;;;4971041;28;20094;-77
2022/05/31 00:37:51;;;;;;;4.18;1.88;;;15.80;99.90;;;;;;4970957;28;20424;-76
2022/05/31 00:40:22;;;;;;;2.70;1.73;;;15.80;99.90;;;;;;4972861;28;20133;-76
2022/05/31 00:42:54;;;;;;;3.30;1.90;;;15.80;99.90;;;;;;4982926;28;20065;-76
2022/05/31 00:45:26;;;;;;;6.10;2.30;;;15.80;99.90;;;;;;4974792;28;20062;-77
2022/05/31 00:47:54;;;;;;;6.10;1.85;;;15.80;99.90;;;;;;4969363;28;20059;-76
2022/05/31 00:50:30;;;;;;;2.97;1.80;;;15.90;99.90;;;;;;4968656;28;20117;-77
2022/05/31 00:53:04;;;;;;;6.18;2.10;;;15.90;99.90;;;;;;4953119;28;20042;-77
2022/05/31 00:55:36;;;;;;;2.88;1.73;;;16.00;99.90;;;;;;4970719;28;20062;-76
2022/05/31 00:58:14;;;;;;;3.55;1.65;;;16.00;99.90;;;;;;4971564;28;20522;-76
2022/05/31 01:00:42;;;;;;;4.78;2.10;;;16.00;99.90;;;;;;4970777;28;20051;-76
2022/05/31 01:03:15;;;;;;;7.05;1.80;;;16.00;99.90;;;;;;5134461;23;20085;-80
2022/05/31 01:05:43;;;;;;;7.05;2.88;;;16.00;99.90;;;;;;4990203;28;20485;-81
2022/05/31 01:08:12;;;;;;;5.95;1.40;;;16.00;99.90;;;;;;4990103;28;20067;-81
2022/05/31 01:10:59;;;;;;;2.35;1.30;;;16.00;99.90;;;;;;4987794;28;20081;-81
2022/05/31 01:13:53;;;;;;;5.28;1.65;;;16.00;99.90;;;;;;4970328;28;20341;-81
2022/05/31 01:16:57;;;;;;;2.70;1.63;;;15.90;99.90;;;;;;4969961;28;20058;-79
2022/05/31 01:19:59;;;;;;;1.83;1.73;;;15.90;99.90;;;;;;4998621;28;20090;-80
2022/05/31 01:22:40;;;;;;;5.80;2.10;;;15.90;99.90;;;;;;4990455;28;20046;-80
2022/05/31 01:25:38;;;;;;;3.22;2.00;;;15.80;99.90;;;;;;4973920;28;20573;-80
2022/05/31 01:28:22;;;;;;;4.30;1.60;;;15.90;99.90;;;;;;5005169;28;20092;-81
2022/05/31 01:30:57;;;;;;;5.65;1.90;;;15.80;99.90;;;;;;4990821;28;20046;-82
2022/05/31 01:33:30;;;;;;;3.17;1.65;;;15.80;99.90;;;;;;4973100;28;20154;-81
2022/05/31 01:36:01;;;;;;;;;;;15.80;99.90;;;;;;4991462;28;20433;-82
2022/05/31 01:38:38;;;;;;;4.35;1.70;;;15.80;99.90;;;;;;4990823;28;19948;-82
2022/05/31 01:41:19;;;;;;;3.03;1.50;;;15.70;99.90;;;;;;4991310;28;20518;-82
2022/05/31 01:43:49;;;;;;;2.03;1.33;;;15.70;99.90;;;;;;4989566;28;20054;-79
2022/05/31 01:46:23;;;;;;;3.97;2.13;;;15.70;99.90;;;;;;4976961;28;20074;-81
2022/05/31 01:48:51;;;;;;;1.75;1.30;;;15.70;99.90;;;;;;4989321;28;20414;-82
2022/05/31 01:51:19;;;;;;;5.28;1.80;;;15.60;99.90;;;;;;4990260;28;20481;-81
2022/05/31 01:53:48;;;;;;;3.83;1.80;;;15.60;99.90;;;;;;4973384;28;20046;-81
2022/05/31 01:56:16;;;;;;;2.08;1.77;;;15.60;99.90;;;;;;4988310;28;20128;-81
2022/05/31 01:58:48;;;;;;;3.53;1.63;;;15.60;99.90;;;;;;4989749;28;20054;-81
2022/05/31 02:01:16;;;;;;;2.53;1.57;;;15.70;99.90;;;;;;4989762;28;20092;-81
2022/05/31 02:03:45;;;;;;;1.45;1.35;;;15.60;99.90;;;;;;4990540;28;20820;-81
2022/05/31 02:06:32;;;;;;;1.98;1.40;;;15.60;99.90;;;;;;4992770;28;20553;-81
2022/05/31 02:09:02;;;;;;;2.65;1.50;;;15.70;99.90;;;;;;4969700;28;20075;-81
2022/05/31 02:11:30;;;;;;;2.75;1.70;;;15.70;99.90;;;;;;4970448;28;20082;-80
2022/05/31 02:14:07;;;;;;;1.52;1.33;;;15.70;99.90;;;;;;4983112;28;20042;-81
2022/05/31 02:16:36;;;;;;;1.63;1.50;;;15.70;99.90;;;;;;4990897;28;20092;-81
2022/05/31 02:19:27;;;;;;;2.40;1.52;;;15.70;99.90;;;;;;4989504;28;20050;-81
2022/05/31 02:22:14;;;;;;;5.57;1.60;;;15.70;99.90;;;;;;4980599;28;20047;-82
2022/05/31 02:24:43;;;;;;;4.90;1.40;;;15.70;99.90;;;;;;4982736;28;20058;-81
2022/05/31 02:27:12;;;;;;;6.65;1.35;;;15.60;99.90;;;;;;4982367;28;20047;-81
2022/05/31 02:29:43;;;;;;;3.88;1.30;;;15.60;99.90;;;;;;4994664;28;20517;-81
2022/05/31 02:32:14;;;;;;;4.88;1.25;;;15.60;99.90;;;;;;4989299;28;20050;-81
2022/05/31 02:34:45;;;;;;;2.65;1.25;;;15.60;99.90;;;;;;4988602;28;20046;-82
2022/05/31 02:37:15;;;;;;;4.88;1.58;;;15.60;99.90;;;;;;4971700;28;20097;-81
2022/05/31 02:39:44;;;;;;;2.40;1.17;;;15.60;99.90;;;;;;4988592;28;20046;-82
2022/05/31 02:42:13;;;;;;;3.13;1.38;;;15.60;99.90;;;;;;4970968;28;20101;-81
2022/05/31 02:44:41;;;;;;;5.32;1.58;;;15.60;99.90;;;;;;4990440;28;20054;-82
2022/05/31 02:47:09;;;;;;;2.65;1.40;;;15.60;99.90;;;;;;4975559;28;20050;-82
2022/05/31 02:49:39;;;;;;;1.63;1.13;;;15.70;99.90;;;;;;4992946;28;20070;-82
2022/05/31 02:52:07;;;;;;;2.65;1.25;;;15.70;99.90;;;;;;4991407;28;20414;-81
2022/05/31 02:54:35;;;;;;;2.22;1.30;;;15.70;99.90;;;;;;4984481;28;20514;-81
2022/05/31 02:57:22;;;;;;;3.17;1.05;;;15.70;99.90;;;;;;4988443;28;20058;-81
2022/05/31 03:00:12;;;;;;;3.33;2.30;;;15.80;99.90;;;;;;4992187;28;20054;-82
2022/05/31 03:02:59;;;;;;;3.10;1.25;;;15.80;99.90;;;;;;4992722;28;20513;-81
2022/05/31 03:05:56;;;;;;;5.95;1.35;;;15.80;99.90;;;;;;4980011;28;20057;-81
2022/05/31 03:08:37;;;;;;;5.30;1.05;;;15.90;99.90;;;;;;4993059;28;20062;-83
2022/05/31 03:11:17;;;;;;;3.65;1.30;;;15.90;99.90;;;;;;4983205;28;20054;-76
2022/05/31 03:13:49;;;;;;;4.90;1.30;;;15.90;99.90;;;;;;4991789;28;20050;-79
2022/05/31 03:16:17;;;;;;;3.53;1.30;;;15.90;99.90;;;;;;4980855;28;20557;-81
2022/05/31 03:19:01;;;;;;;8.68;1.70;;;15.90;99.90;;;;;;4991249;28;20077;-81
2022/05/31 03:21:36;;;;;;;5.65;1.45;;;15.90;99.90;;;;;;4982934;28;20050;-80
2022/05/31 03:24:14;;;;;;;3.85;1.63;;;15.90;99.90;;;;;;4990096;28;20039;-81
2022/05/31 03:26:43;;;;;;;5.40;1.40;;;15.90;99.90;;;;;;4992598;28;20050;-80
2022/05/31 03:29:12;;;;;;;6.45;1.52;;;15.90;99.90;;;;;;4981449;28;20075;-76
2022/05/31 03:31:41;;;;;;;6.93;1.60;;;16.00;99.90;;;;;;4974273;28;20055;-75
2022/05/31 03:34:08;;;;;;;2.25;1.45;;;16.00;99.90;;;;;;4986544;28;20070;-75
2022/05/31 03:36:35;;;;;;;6.05;1.67;;;16.00;99.90;;;;;;4991546;28;20538;-75
2022/05/31 03:39:10;;;;;;;5.25;2.17;;;16.00;99.90;;;;;;4973994;28;20042;-74
2022/05/31 03:41:39;;;;;;;5.55;1.70;;;16.10;99.90;;;;;;4984962;28;20051;-75
2022/05/31 03:44:09;;;;;;;4.38;1.35;;;16.10;99.90;;;;;;4992562;28;20237;-76
2022/05/31 03:46:58;;;;;;;3.25;1.73;;;16.10;99.90;;;;;;4986242;28;20237;-80
2022/05/31 03:49:39;;;;;;;5.30;1.38;;;16.20;99.90;;;;;;4990827;28;20058;-79
2022/05/31 03:52:09;;;;;;;6.55;2.20;;;16.30;99.90;;;;;;4988860;28;20520;-80
2022/05/31 03:54:43;;;;;;;6.63;1.33;;;16.40;99.90;;;;;;4991856;28;20066;-81
2022/05/31 03:57:16;;;;;;;6.57;1.48;;;16.40;99.90;;;;;;4991415;28;20261;-81
2022/05/31 03:59:47;;;;;;;2.67;1.40;;;16.50;99.90;;;;;;4976100;28;20519;-80
2022/05/31 04:02:17;;;;;;;4.40;1.25;;;16.60;99.90;;;;;;4990150;28;20120;-80
2022/05/31 04:04:47;;;;;;;3.78;1.60;;;16.60;99.90;;;;;;4987798;28;20145;-80
2022/05/31 04:07:15;;;;;;;4.97;1.40;;;16.70;99.90;;;;;;4991490;28;20054;-75
2022/05/31 04:09:42;;;;;;;6.65;1.23;;;16.70;99.90;;;;;;4987700;28;20043;-75
2022/05/31 04:12:12;;;;;;;2.28;1.23;;;16.80;99.90;;;;;;4967778;28;20046;-77
2022/05/31 04:15:06;;;;;;;5.93;1.20;;;16.80;99.90;;;;;;4990139;28;20054;-84
2022/05/31 04:17:35;;;;;;;1.73;1.48;;;16.80;99.90;;;;;;4990363;28;20054;-83
2022/05/31 04:20:02;;;;;;;4.15;1.52;;;16.90;99.90;;;;;;4989815;28;20053;-80
2022/05/31 04:22:30;;;;;;;3.00;1.73;;;17.00;99.90;;;;;;4992283;28;20061;-83
2022/05/31 04:25:17;;;;;;;2.05;1.85;;;17.10;99.90;;;;;;4989274;28;20055;-81
2022/05/31 04:28:05;;;;;;;2.05;1.13;;;17.10;99.90;;;;;;4995518;28;20051;-81
2022/05/31 04:30:52;;;;;;;6.88;2.00;;;17.20;99.90;;;;;;4988152;28;20054;-80
2022/05/31 04:33:47;;;;;;;5.78;2.45;;;17.30;99.90;;;;;;4989628;28;20069;-80
2022/05/31 04:36:20;;;;;;;7.88;3.78;;;17.30;99.90;;;;;;4974276;28;20479;-80
2022/05/31 04:38:47;;;;;;;;;;;17.40;99.90;;;;;;4991036;28;20050;-80
2022/05/31 04:41:23;;;;;;;6.40;1.58;;;17.40;99.90;;;;;;4990716;28;20051;-79
2022/05/31 04:43:59;;;;;;;9.93;2.25;;;17.50;99.90;;;;;;4974514;28;20042;-81
2022/05/31 04:46:33;;;;;;;9.95;2.10;;;17.50;99.90;;;;;;4988537;28;20097;-80
2022/05/31 04:49:10;;;;;;;9.25;3.65;;;17.50;99.90;;;;;;4984810;28;20554;-80
2022/05/31 04:51:38;;;;;;;5.25;3.53;;;17.50;99.90;;;;;;4985527;28;20058;-80
2022/05/31 04:54:08;;;;;;;5.50;1.85;;;17.50;99.90;;;;;;4990235;28;21671;-80
2022/05/31 04:56:36;;;;;;;6.07;1.48;;;17.50;99.90;;;;;;4992417;28;20046;-81
2022/05/31 04:59:07;;;;;;;4.47;1.40;;;17.50;99.90;;;;;;4990871;28;20054;-75
2022/05/31 05:01:36;;;;;;;6.82;1.75;;;17.50;99.90;;;;;;4985558;28;20043;-75
2022/05/31 05:04:12;;;;;;;5.88;1.60;;;17.40;99.90;;;;;;4980867;28;20141;-75
2022/05/31 05:06:55;;;;;;;11.38;2.03;;;17.40;99.90;;;;;;5006782;28;20066;-75
2022/05/31 05:09:24;;;;;;;4.25;1.48;;;17.30;99.90;;;;;;4987508;28;20514;-75
2022/05/31 05:12:10;;;;;;;7.78;1.90;;;17.30;99.90;;;;;;4989746;28;20418;-74
2022/05/31 05:14:40;;;;;;;5.82;1.88;;;17.30;99.90;;;;;;4989345;28;20052;-74
2022/05/31 05:17:13;;;;;;;5.45;2.70;;;17.30;99.90;;;;;;4992093;28;20361;-74
2022/05/31 05:19:46;;;;;;;4.07;3.00;;;17.30;99.90;;;;;;4990193;28;20530;-74
2022/05/31 05:22:14;;;;;;;6.00;1.80;;;17.40;99.90;;;;;;4990826;28;20046;-74
2022/05/31 05:24:41;;;;;;;3.28;2.00;;;17.40;99.90;;;;;;4971056;28;20046;-74
2022/05/31 05:27:18;;;;;;;5.28;2.05;;;17.30;99.90;;;;;;4991772;28;20055;-75
2022/05/31 05:32:36;;;;;;;6.05;1.52;;;17.30;99.90;;;;;;4989606;28;20058;-75
2022/05/31 05:35:26;;;;;;;5.35;1.00;;;17.30;99.90;;;;;;4985546;28;20529;-80
2022/05/31 05:38:01;;;;;;;3.05;1.60;;;17.40;99.90;;;;;;5001093;28;20054;-80
2022/05/31 05:40:35;;;;;;;3.20;1.55;;;17.40;99.90;;;;;;4988929;28;20240;-74
2022/05/31 05:43:08;;;;;;;3.40;1.10;;;17.40;99.90;;;;;;4970892;28;20080;-76
2022/05/31 05:46:02;;;;;;;3.40;1.35;;;17.50;99.90;;;;;;4991963;28;20423;-75
2022/05/31 05:48:29;;;;;;;5.43;1.25;;;17.50;99.90;;;;;;4986706;28;20096;-76
2022/05/31 05:50:59;;;;;;;8.10;1.50;;;17.60;99.90;;;;;;4989524;28;20461;-75
2022/05/31 05:53:47;;;;;;;7.60;1.73;;;17.70;99.90;;;;;;4999318;28;20046;-75
2022/05/31 05:56:33;;;;;;;4.00;1.58;;;17.70;99.90;;;;;;4987015;28;20588;-74
2022/05/31 05:59:20;;;;;;;7.25;1.92;;;17.70;99.90;;;;;;4990564;28;20054;-75
2022/05/31 06:02:31;;;;;;;6.32;2.42;;;17.70;99.90;;;;;;4968323;28;20039;-75
2022/05/31 06:05:28;;;;;;;4.25;1.30;;;17.80;99.90;;;;;;4965192;28;20137;-76
2022/05/31 06:08:03;;;;;;;9.10;1.45;;;17.90;99.90;;;;;;4977500;28;20069;-77
2022/05/31 06:10:36;;;;;;;4.95;1.33;;;17.90;99.90;;;;;;4970225;28;20105;-77
2022/05/31 06:13:14;;;;;;;4.45;1.83;;;17.90;99.90;;;;;;4971856;28;20124;-77
2022/05/31 06:15:47;;;;;;;2.97;1.15;;;17.90;99.90;;;;;;4979166;28;20455;-78
2022/05/31 06:18:20;;;;;;;7.82;1.90;;;17.90;99.90;;;;;;4988705;28;20085;-79
2022/05/31 06:20:53;;;;;;;8.20;1.40;;;17.90;99.90;;;;;;4991618;28;20137;-79
2022/05/31 06:23:22;;;;;;;;;;;17.80;99.90;;;;;;4973719;28;20055;-76
2022/05/31 06:25:51;;;;;;;2.58;1.10;;;17.70;99.90;;;;;;5007144;28;20029;-75
2022/05/31 06:28:31;;;;;;;11.23;1.00;;;17.60;99.90;;;;;;4993076;28;20054;-75
2022/05/31 06:30:59;;;;;;;5.50;1.58;;;17.60;99.90;;;;;;4993480;28;20064;-74
2022/05/31 06:33:26;;;;;;;1.85;0.95;;;17.50;99.90;;;;;;4991290;28;20053;-75
2022/05/31 06:35:54;;;;;;;10.35;1.40;;;17.50;99.90;;;;;;4983712;28;20446;-74
2022/05/31 06:38:24;;;;;;;6.90;1.33;;;17.40;99.90;;;;;;4973497;28;20061;-74
2022/05/31 06:40:53;;;;;;;1.73;1.40;;;17.50;99.90;;;;;;4973810;28;20565;-73
2022/05/31 06:43:50;;;;;;;10.75;1.25;;;17.50;99.90;;;;;;4982345;28;20046;-76
2022/05/31 06:46:23;;;;;;;10.18;1.20;;;17.40;99.90;;;;;;4993836;28;20399;-77
2022/05/31 06:48:54;;;;;;;5.65;1.80;;;17.20;99.90;;;;;;4981480;28;20057;-77
2022/05/31 06:57:49;;;;;;;3.00;1.27;;;16.50;99.90;;;;;;4981245;28;20158;-72
2022/05/31 07:00:28;;;;;;;4.38;2.15;;;16.50;99.90;;;;;;4984778;28;20045;-72
2022/05/31 07:02:59;;;;;;;10.27;1.58;;;16.40;99.90;;;;;;5000563;28;20039;-72
2022/05/31 07:05:33;;;;;;;3.42;1.38;;;16.30;99.90;;;;;;4978627;28;20136;-73
2022/05/31 07:08:01;;;;;;;2.65;1.13;;;16.30;99.90;;;;;;4980203;28;20046;-73
2022/05/31 07:10:48;;;;;;;5.00;1.05;;;16.20;99.90;;;;;;4980381;28;20050;-72
2022/05/31 07:13:20;;;;;;;5.72;1.40;;;16.10;99.90;;;;;;4989754;28;20060;-74
2022/05/31 07:16:06;;;;;;;3.38;1.50;;;16.10;99.90;;;;;;4980232;28;20053;-73
2022/05/31 07:18:53;;;;;;;4.18;1.60;;;16.00;99.90;;;;;;4990512;28;20060;-73
2022/05/31 07:21:21;;;;;;;2.83;1.65;;;15.90;99.90;;;;;;5007110;28;20109;-74
2022/05/31 07:23:48;;;;;;;4.05;1.15;;;15.80;99.90;;;;;;4991624;28;20057;-73
2022/05/31 07:26:17;;;;;;;2.38;1.33;;;15.70;99.90;;;;;;4992211;28;20109;-72
2022/05/31 07:28:45;;;;;;;3.83;1.77;;;15.60;99.90;;;;;;4989946;28;20077;-72
2022/05/31 07:31:12;;;;;;;6.30;2.22;;;15.60;99.90;;;;;;4936136;28;20046;-73
2022/05/31 07:33:55;;;;;;;4.85;2.00;;;15.60;99.90;;;;;;4970911;28;20042;-73
2022/05/31 07:36:22;;;;;;;4.85;1.80;;;15.60;99.90;;;;;;4993666;28;20058;-73
2022/05/31 07:39:06;;;;;;;3.38;1.90;;;15.60;99.90;;;;;;4986822;28;20052;-74
2022/05/31 07:41:35;;;;;;;2.90;1.65;;;15.60;99.90;;;;;;4981511;28;20069;-74
2022/05/31 07:44:03;;;;;;;6.85;1.80;;;15.60;99.90;;;;;;4971851;28;20518;-76
2022/05/31 07:46:31;;;;;;;8.23;2.13;;;15.50;99.90;;;;;;4962138;28;20057;-75
2022/05/31 07:49:00;;;;;;;5.60;2.13;;;15.40;99.90;;;;;;4991978;28;20049;-76
2022/05/31 07:51:50;;;;;;;4.20;2.38;;;15.30;99.90;;;;;;4992171;28;20058;-76
2022/05/31 07:54:47;;;;;;;5.60;3.13;;;15.00;99.90;;;;;;4992103;28;20046;-78
2022/05/31 08:00:43;;;;;;;3.10;2.00;;;14.90;99.90;;;;;;4987823;28;20054;-80
2022/05/31 08:03:11;;;;;;;2.10;1.90;;;14.80;99.90;;;;;;4991062;28;20065;-75
2022/05/31 08:05:40;;;;;;;5.72;2.28;;;14.80;99.90;;;;;;4990241;28;20046;-75
2022/05/31 08:08:09;;;;;;;3.60;2.17;;;14.90;99.90;;;;;;4987165;28;20077;-76
2022/05/31 08:10:37;;;;;;;3.13;2.70;;;14.90;99.90;;;;;;4992008;28;20053;-75
2022/05/31 08:13:06;;;;;;;6.05;2.50;;;14.90;99.90;;;;;;4990251;28;20061;-76
2022/05/31 08:15:33;;;;;;;4.22;2.70;;;14.90;99.90;;;;;;4962409;28;20041;-75
2022/05/31 08:18:02;;;;;;;4.93;2.70;;;14.90;99.90;;;;;;4990161;28;20043;-75
2022/05/31 08:20:30;;;;;;;3.28;2.20;;;14.90;99.90;;;;;;4979407;28;20145;-75
2022/05/31 08:22:57;;;;;;;2.85;2.28;;;15.00;99.90;;;;;;4988174;28;20431;-75
2022/05/31 08:25:25;;;;;;;3.08;1.92;;;15.00;99.90;;;;;;4984719;28;20046;-77
2022/05/31 08:27:52;;;;;;;2.72;2.08;;;15.00;99.90;;;;;;4987269;28;20313;-76
2022/05/31 08:30:21;;;;;;;2.42;2.17;;;15.10;99.90;;;;;;4988824;28;20216;-77
2022/05/31 08:32:49;;;;;;;3.83;2.33;;;15.00;99.90;;;;;;4988627;28;20148;-76
2022/05/31 08:35:16;;;;;;;5.30;2.83;;;15.00;99.90;;;;;;4985488;28;20132;-73
2022/05/31 08:37:43;;;;;;;2.92;2.63;;;15.00;99.90;;;;;;4989242;28;20093;-74
2022/05/31 08:40:13;;;;;;;2.70;2.40;;;15.00;99.90;;;;;;4988918;28;20165;-75
2022/05/31 08:42:57;;;;;;;2.80;2.15;;;14.90;99.90;;;;;;4987425;28;20054;-73
2022/05/31 08:45:40;;;;;;;5.43;2.65;;;14.90;99.90;;;;;;4986323;28;20486;-74
2022/05/31 08:48:17;;;;;;;2.38;2.28;;;15.00;99.90;;;;;;4986809;28;20413;-75
2022/05/31 08:53:47;;;;;;;2.90;2.70;;;15.10;99.90;;;;;;4985294;28;20453;-72
2022/05/31 08:59:11;;;;;;;6.78;3.25;;;15.20;99.90;;;;;;4979387;28;20054;-73
2022/05/31 09:01:50;;;;;;;5.75;3.30;;;15.30;99.90;;;;;;4981263;28;20133;-75
2022/05/31 09:04:22;;;;;;;4.68;4.20;;;15.30;99.90;;;;;;4982346;28;20426;-75
2022/05/31 09:06:56;;;;;;;3.80;3.55;;;15.30;99.90;;;;;;4979612;28;20051;-74
2022/05/31 09:09:27;;;;;;;9.60;3.92;;;15.40;99.90;;;;;;4995909;28;20050;-74
2022/05/31 09:12:03;;;;;;;6.13;4.28;;;15.50;99.90;;;;;;4984366;28;20046;-75
2022/05/31 09:14:49;;;;;;;4.20;3.70;;;15.50;99.90;;;;;;4978422;28;20491;-79
2022/05/31 09:17:26;;;;;;;4.47;3.28;;;15.50;99.90;;;;;;4986409;28;20058;-75
2022/05/31 09:20:02;;;;;;;3.80;3.50;;;15.60;99.90;;;;;;4984112;28;20513;-75
2022/05/31 09:22:31;;;;;;;5.00;3.97;;;15.50;99.90;;;;;;4986350;28;20069;-76
2022/05/31 09:24:58;;;;;;;3.80;3.60;;;15.40;99.90;;;;;;4985904;28;20062;-75
2022/05/31 09:27:37;;;;;;;7.50;3.67;;;15.30;99.90;;;;;;4980926;28;20042;-74
2022/05/31 09:30:11;;;;;;;4.47;3.30;;;15.30;99.90;;;;;;4984652;28;20046;-74
2022/05/31 09:33:06;;;;;;;3.60;3.40;;;15.30;99.90;;;;;;4982386;28;20055;-75
2022/05/31 09:35:51;;;;;;;3.63;3.13;;;15.30;99.90;;;;;;4961294;28;20047;-75
2022/05/31 09:38:49;;;;;;;3.60;3.30;;;15.50;99.90;;;;;;4983713;28;20061;-75
2022/05/31 09:41:24;;;;;;;4.13;3.47;;;15.90;99.90;;;;;;4955809;28;20121;-74
2022/05/31 09:44:03;;;;;;;15.23;11.25;;;16.40;99.90;;;;;;4988535;28;20149;-75
2022/05/31 09:46:40;;;;;;;4.90;4.18;;;17.10;99.90;;;;;;4969253;28;20081;-75
2022/05/31 09:49:32;;;;;;;4.32;3.33;;;18.40;99.90;;;;;;4988835;28;20054;-76
2022/05/31 09:52:00;;;;;;;4.05;3.28;;;20.00;99.90;;;;;;4989453;28;20124;-75
2022/05/31 09:57:24;;;;;;;3.30;3.00;;;22.50;99.90;;;;;;4973108;28;20901;-75
2022/05/31 10:00:22;;;;;;;3.75;2.80;;;23.60;99.90;;;;;;4996876;28;20057;-74
2022/05/31 10:03:12;;;;;;;6.45;2.95;;;24.70;99.90;;;;;;4968049;28;20047;-75
2022/05/31 10:05:45;;;;;;;4.05;3.15;;;25.20;99.90;;;;;;4983583;28;20057;-76
2022/05/31 10:08:18;;;;;;;4.22;2.88;;;26.10;99.90;;;;;;4981559;28;20407;-75
2022/05/31 10:10:49;;;;;;;3.40;3.10;;;26.10;96.40;;;;;;4982876;28;20042;-73
2022/05/31 10:13:36;;;;;;;2.70;2.50;;;24.80;99.80;;;;;;4983921;28;20055;-74
2022/05/31 10:16:19;;;;;;;3.28;3.08;;;23.80;99.90;;;;;;4975963;28;20058;-75
2022/05/31 10:18:53;;;;;;;3.58;3.28;;;23.70;99.90;;;;;;4987402;28;20561;-76
2022/05/31 10:21:34;;;;;;;7.47;2.92;;;23.60;99.90;;;;;;4981807;28;20081;-76
2022/05/31 10:24:08;;;;;;;5.43;2.90;;;23.10;99.90;;;;;;4978334;28;20061;-77
2022/05/31 10:27:20;;;;;;;3.75;3.17;;;23.30;99.90;;;;;;4985920;28;20478;-77
2022/05/31 10:30:04;;;;;;;4.13;2.58;;;22.90;99.90;;;;;;4977869;28;20070;-77
2022/05/31 10:33:08;;;;;;;3.13;2.50;;;22.40;99.90;;;;;;4977911;28;20105;-77
2022/05/31 10:35:40;;;;;;;3.35;3.05;;;21.80;99.90;;;;;;4985879;28;20062;-77
2022/05/31 10:38:26;;;;;;;3.20;2.70;;;21.60;99.90;;;;;;4968748;28;20089;-75
2022/05/31 10:40:59;;;;;;;3.63;2.53;;;21.20;99.90;;;;;;4987366;28;20152;-75
2022/05/31 10:43:37;;;;;;;6.05;2.88;;;21.00;99.90;;;;;;4976659;28;20116;-75
2022/05/31 10:46:12;;;;;;;3.05;2.85;;;21.80;99.90;;;;;;4984524;28;20058;-76
2022/05/31 10:48:47;;;;;;;3.13;2.83;;;21.80;99.90;;;;;;4978057;28;20664;-76
2022/05/31 10:51:22;;;;;;;4.93;3.00;;;21.60;99.90;;;;;;4983649;28;20113;-76
2022/05/31 10:54:10;;;;;;;3.83;2.92;;;21.20;99.90;;;;;;4983268;28;20149;-74
2022/05/31 10:56:47;;;;;;;2.20;2.00;;;20.60;99.90;;;;;;4970599;28;20055;-75
2022/05/31 10:59:18;;;;;;;3.08;2.35;;;20.20;99.90;;;;;;4993154;28;20066;-75
2022/05/31 11:02:08;;;;;;;2.78;2.55;;;19.90;99.90;;;;;;4978760;28;20046;-75
2022/05/31 11:04:50;;;;;;;3.78;2.03;;;19.80;99.90;;;;;;4985205;28;20042;-76
2022/05/31 11:07:36;;;;;;;2.35;2.13;;;20.30;99.90;;;;;;4980747;28;20518;-76
2022/05/31 11:13:28;;;;;;;2.40;2.20;;;21.80;99.90;;;;;;4989398;28;20057;-75
2022/05/31 11:16:05;;;;;;;5.03;2.97;;;21.90;99.90;;;;;;4989747;28;20731;-77
2022/05/31 11:19:04;;;;;;;3.33;2.22;;;21.70;99.90;;;;;;4992381;28;20524;-75
2022/05/31 11:21:50;;;;;;;2.58;2.17;;;22.10;99.90;;;;;;4968719;28;20051;-75
2022/05/31 11:24:41;;;;;;;4.78;2.90;;;22.40;99.90;;;;;;4981910;28;20582;-75
2022/05/31 11:27:30;;;;;;;3.05;2.10;;;22.60;99.90;;;;;;4990524;28;20051;-78
2022/05/31 11:30:18;;;;;;;2.70;2.38;;;22.80;99.90;;;;;;4978043;28;20077;-75
2022/05/31 11:33:36;;;;;;;6.40;2.72;;;23.00;99.90;;;;;;4994928;28;20056;-76
2022/05/31 11:36:27;;;;;;;3.45;2.00;;;22.60;99.90;;;;;;4944122;28;20078;-76
2022/05/31 11:39:07;;;;;;;4.78;4.15;;;22.50;99.90;;;;;;4983785;28;20134;-75
2022/05/31 11:42:01;;;;;;;5.72;2.00;;;22.30;99.90;;;;;;4992832;28;20554;-75
2022/05/31 11:45:06;;;;;;;2.38;2.17;;;22.20;99.90;;;;;;4975362;28;20079;-78
2022/05/31 11:48:16;;;;;;;2.20;2.03;;;22.10;99.90;;;;;;4989245;28;20085;-76
2022/05/31 11:50:56;;;;;;;3.45;1.95;;;21.80;99.90;;;;;;5001022;28;20050;-77
2022/05/31 11:53:45;;;;;;;2.13;1.85;;;21.40;99.90;;;;;;4971536;28;20054;-77
2022/05/31 11:56:23;;;;;;;2.20;2.10;;;21.10;99.90;;;;;;4986253;28;20068;-77
2022/05/31 11:58:58;;;;;;;2.85;2.65;;;20.70;99.90;;;;;;4988355;28;20074;-76
2022/05/31 12:01:37;;;;;;;3.17;2.88;;;20.50;99.90;;;;;;4981376;28;20042;-75
2022/05/31 12:04:10;;;;;;;4.30;2.88;;;20.20;99.90;;;;;;4981927;28;20047;-75
2022/05/31 12:06:45;;;;;;;4.35;2.42;;;20.10;99.90;;;;;;4981103;28;20046;-78
2022/05/31 12:09:21;;;;;;;6.03;3.35;;;20.10;99.90;;;;;;4985826;28;20411;-77
2022/05/31 12:11:54;;;;;;;2.30;1.90;;;20.20;99.90;;;;;;4981564;28;21398;-76
2022/05/31 12:14:23;;;;;;;6.20;3.25;;;20.30;99.90;;;;;;4987175;28;20053;-77
2022/05/31 12:16:53;;;;;;;2.47;2.08;;;20.30;99.90;;;;;;4986649;28;20173;-77
2022/05/31 12:19:32;;;;;;;3.90;2.50;;;20.20;99.90;;;;;;4982330;28;20105;-76
2022/05/31 12:22:08;;;;;;;2.35;1.73;;;20.20;99.90;;;;;;4971795;28;20051;-79
2022/05/31 12:24:42;;;;;;;2.83;1.70;;;20.30;99.90;;;;;;4985998;28;20149;-76
2022/05/31 12:27:16;;;;;;;10.95;3.17;;;20.50;99.90;;;;;;4984120;28;20054;-75
2022/05/31 12:29:50;;;;;;;3.20;2.35;;;20.60;99.90;;;;;;4986787;28;20054;-76
2022/05/31 12:32:42;;;;;;;2.28;1.70;;;20.60;99.90;;;;;;4988214;28;20050;-77
2022/05/31 12:35:14;;;;;;;3.10;1.63;;;20.90;99.90;;;;;;4985328;28;20069;-76
2022/05/31 12:37:54;;;;;;;2.92;1.92;;;21.20;99.90;;;;;;4982717;28;20305;-76
2022/05/31 12:40:29;;;;;;;4.20;1.90;;;21.30;99.90;;;;;;4985746;28;20065;-76
2022/05/31 12:42:56;;;;;;;5.88;2.42;;;21.40;99.90;;;;;;4983254;28;20427;-76
2022/05/31 12:45:40;;;;;;;6.43;2.00;;;21.50;99.90;;;;;;4980886;28;20117;-76
2022/05/31 12:48:23;;;;;;;6.20;2.10;;;21.40;99.90;;;;;;4984903;28;20086;-76
2022/05/31 12:51:20;;;;;;;7.28;2.40;;;21.20;99.90;;;;;;5000065;28;20050;-75
2022/05/31 12:54:11;;;;;;;6.53;1.85;;;20.80;99.90;;;;;;4981226;28;20042;-76
2022/05/31 12:56:59;;;;;;;2.83;1.63;;;20.70;99.90;;;;;;4984471;28;20055;-76
2022/05/31 12:59:54;;;;;;;2.08;1.60;;;20.50;99.90;;;;;;4986588;28;20478;-79
2022/05/31 13:02:44;;;;;;;6.88;1.83;;;20.50;99.90;;;;;;4979884;28;20065;-77
2022/05/31 13:05:38;;;;;;;3.25;1.80;;;20.60;99.90;;;;;;4978997;28;20047;-79
2022/05/31 13:08:20;;;;;;;5.50;1.45;;;21.40;99.90;;;;;;4966969;28;20046;-77
2022/05/31 13:19:38;;;;;;;4.50;1.83;;;20.90;99.90;;;;;;4985997;28;20054;-79
2022/05/31 13:22:11;;;;;;;8.05;2.22;;;20.60;99.90;;;;;;4981897;28;20430;-72
2022/05/31 13:24:48;;;;;;;4.18;1.08;;;21.50;99.90;;;;;;4982809;28;20117;-75
2022/05/31 13:27:22;;;;;;;2.17;1.10;;;22.30;95.80;;;;;;4987828;28;20046;-73
2022/05/31 13:30:02;;;;;;;4.00;1.00;;;23.80;90.10;;;;;;4987522;28;20590;-74
2022/05/31 13:32:47;;;;;;;1.60;0.70;;;25.00;78.50;;;;;;4984531;28;20074;-74
2022/05/31 13:35:32;;;;;;;3.33;1.83;;;24.40;74.90;;;;;;4984745;28;20050;-76
2022/05/31 13:38:04;;;;;;;3.35;0.90;;;23.40;78.00;;;;;;4982420;28;20441;-73
2022/05/31 13:40:35;;;;;;;5.38;1.00;;;23.40;80.30;;;;;;4983679;28;20058;-74
2022/05/31 13:43:06;;;;;;;9.82;1.00;;;23.90;78.40;;;;;;4985449;28;20058;-73
2022/05/31 13:45:34;;;;;;;7.70;1.40;;;24.90;72.00;;;;;;4985250;28;20546;-73
2022/05/31 13:48:11;;;;;;;8.70;1.27;;;25.90;66.10;;;;;;4979080;28;20046;-72
2022/05/31 13:50:52;;;;;;;5.90;1.55;;;25.70;66.30;;;;;;4983491;28;20078;-74
2022/05/31 13:53:22;;;;;;;9.90;1.40;;;26.20;61.70;;;;;;4983579;28;20046;-75
2022/05/31 13:55:58;;;;;;;5.32;1.25;;;25.00;61.90;;;;;;4986900;28;20469;-75
2022/05/31 13:58:32;;;;;;;9.05;1.38;;;23.90;67.10;;;;;;4987951;28;20059;-74
2022/05/31 14:01:02;;;;;;;6.22;1.35;;;23.10;68.40;;;;;;4974867;28;20101;-73
2022/05/31 14:03:35;;;;;;;6.82;1.45;;;22.40;70.90;;;;;;4986260;28;20149;-74
2022/05/31 14:06:10;;;;;;;6.63;1.02;;;22.10;71.20;;;;;;4988296;28;20060;-74
2022/05/31 14:08:48;;;;;;;6.22;0.80;;;21.80;72.90;;;;;;4986055;28;20061;-75